Time;durP1;ratioP1;P1;durP2;ratioP2;P2;SDS_P1;SDS_P2;PMS_P1;PMS_P2;Temp;Humidity;BMP_temperature;BMP_pressure;BME280_temperature;BME280_humidity;BME280_pressure;Samples;Min_cycle;Max_cycle;Signal;HPM_P1;HPM_P2
2021/07/24 00:01:53;;;;;;;9.40;6.25;;;15.60;99.90;;;;;;4894630;29;20040;-89
2021/07/24 00:04:18;;;;;;;7.50;5.53;;;15.50;99.90;;;;;;4877932;29;20108;-88
2021/07/24 00:06:47;;;;;;;9.95;5.63;;;15.40;99.90;;;;;;4877696;29;20036;-88
2021/07/24 00:09:14;;;;;;;11.50;6.57;;;15.50;99.90;;;;;;4877689;29;20044;-89
2021/07/24 00:11:39;;;;;;;9.40;6.03;;;15.40;99.90;;;;;;4877774;29;20032;-88
2021/07/24 00:14:05;;;;;;;9.43;6.25;;;15.40;99.90;;;;;;4877837;29;20430;-89
2021/07/24 00:16:30;;;;;;;6.68;5.03;;;15.30;99.90;;;;;;4867564;29;20394;-88
2021/07/24 00:18:56;;;;;;;10.48;5.78;;;15.40;99.90;;;;;;4893303;29;20037;-88
2021/07/24 00:21:22;;;;;;;8.35;5.90;;;15.40;99.90;;;;;;4896270;29;20029;-89
2021/07/24 00:23:47;;;;;;;8.40;4.32;;;15.30;99.90;;;;;;4896288;29;20127;-89
2021/07/24 00:26:14;;;;;;;8.68;5.05;;;15.30;99.90;;;;;;4896191;29;20032;-89
2021/07/24 00:28:40;;;;;;;9.07;7.03;;;15.20;99.90;;;;;;4896060;29;20037;-88
2021/07/24 00:31:06;;;;;;;11.40;6.10;;;15.20;99.90;;;;;;4880388;29;20040;-88
2021/07/24 00:33:38;;;;;;;11.07;7.45;;;15.20;99.90;;;;;;4896810;29;20032;-88
2021/07/24 00:36:03;;;;;;;10.73;6.90;;;15.20;99.90;;;;;;4880195;29;20044;-88
2021/07/24 00:38:30;;;;;;;11.38;6.80;;;15.20;99.90;;;;;;4896023;29;20040;-88
2021/07/24 00:41:00;;;;;;;10.52;6.47;;;15.20;99.90;;;;;;4896003;29;20040;-89
2021/07/24 00:43:29;;;;;;;10.60;5.88;;;15.20;99.90;;;;;;4896160;29;20060;-88
2021/07/24 00:45:56;;;;;;;11.85;6.55;;;15.20;99.90;;;;;;4895699;29;20044;-88
2021/07/24 00:48:24;;;;;;;9.25;6.25;;;15.20;99.90;;;;;;4895907;29;20028;-89
2021/07/24 00:51:05;;;;;;;11.38;6.72;;;15.20;99.90;;;;;;4897724;29;20045;-88
2021/07/24 00:53:37;;;;;;;11.40;6.80;;;15.20;99.90;;;;;;4895861;29;20043;-88
2021/07/24 00:56:05;;;;;;;9.85;5.43;;;15.20;99.90;;;;;;4895657;29;20039;-89
2021/07/24 00:58:33;;;;;;;10.32;6.55;;;15.10;99.90;;;;;;4895674;29;20047;-88
2021/07/24 01:01:00;;;;;;;15.32;6.72;;;15.10;99.90;;;;;;4895698;29;20036;-88
2021/07/24 01:03:27;;;;;;;10.60;5.93;;;15.10;99.90;;;;;;4895685;29;20096;-88
2021/07/24 01:05:54;;;;;;;8.43;5.75;;;15.20;99.90;;;;;;4895388;29;20088;-88
2021/07/24 01:08:21;;;;;;;9.18;6.43;;;15.10;99.90;;;;;;4895396;29;20040;-88
2021/07/24 01:10:48;;;;;;;11.40;6.40;;;15.10;99.90;;;;;;4895613;29;20064;-88
2021/07/24 01:13:16;;;;;;;10.05;6.70;;;15.00;99.90;;;;;;4895883;29;20028;-88
2021/07/24 01:15:47;;;;;;;9.30;6.20;;;15.00;99.90;;;;;;4893254;29;20406;-88
2021/07/24 01:18:14;;;;;;;9.63;6.43;;;14.90;99.90;;;;;;4888996;29;20085;-88
2021/07/24 01:20:42;;;;;;;9.57;6.43;;;15.00;99.90;;;;;;4888797;29;20068;-88
2021/07/24 01:23:10;;;;;;;11.85;7.03;;;14.90;99.90;;;;;;4904308;29;20033;-88
2021/07/24 01:25:47;;;;;;;10.85;7.30;;;14.80;99.90;;;;;;4873088;29;20034;-87
2021/07/24 01:28:30;;;;;;;9.02;6.13;;;14.80;99.90;;;;;;4904415;29;20037;-88
2021/07/24 01:30:58;;;;;;;10.48;7.75;;;14.70;99.90;;;;;;4888758;29;20061;-88
2021/07/24 01:33:26;;;;;;;11.18;6.60;;;14.80;99.90;;;;;;4888473;29;20026;-88
2021/07/24 01:35:52;;;;;;;12.68;7.25;;;14.80;99.90;;;;;;4888552;29;20037;-88
2021/07/24 01:38:19;;;;;;;11.95;7.00;;;14.70;99.90;;;;;;4872972;29;20033;-88
2021/07/24 01:40:49;;;;;;;10.52;6.93;;;14.70;99.90;;;;;;4899562;29;20045;-88
2021/07/24 01:43:15;;;;;;;11.55;7.05;;;14.70;99.90;;;;;;4890951;29;20044;-88
2021/07/24 01:45:41;;;;;;;9.95;6.72;;;14.60;99.90;;;;;;4891437;29;20069;-88
2021/07/24 01:48:16;;;;;;;7.28;4.78;;;14.60;99.90;;;;;;4919991;23;20052;-87
2021/07/24 01:53:30;;;;;;;10.27;6.75;;;14.60;99.90;;;;;;4913930;29;20079;-87
2021/07/24 01:56:06;;;;;;;11.50;6.60;;;14.70;99.90;;;;;;4913550;29;20067;-87
2021/07/24 01:58:35;;;;;;;13.65;7.07;;;14.60;99.90;;;;;;4946803;29;20115;-88
2021/07/24 02:01:11;;;;;;;9.77;6.47;;;14.60;99.90;;;;;;4917945;29;20126;-87
2021/07/24 02:03:42;;;;;;;12.65;7.85;;;14.70;99.90;;;;;;4916827;29;20047;-88
2021/07/24 02:06:28;;;;;;;11.10;7.40;;;14.60;99.90;;;;;;4934952;29;20051;-87
2021/07/24 02:09:15;;;;;;;12.20;7.65;;;14.60;99.90;;;;;;4949272;29;20050;-87
2021/07/24 02:11:45;;;;;;;9.77;6.10;;;14.60;99.90;;;;;;4932041;29;20043;-88
2021/07/24 02:14:14;;;;;;;10.60;6.80;;;14.60;99.90;;;;;;4932833;29;20045;-87
2021/07/24 02:16:42;;;;;;;11.63;7.53;;;14.60;99.90;;;;;;4931784;29;20036;-87
2021/07/24 02:19:10;;;;;;;11.40;6.35;;;14.50;99.90;;;;;;4916456;29;20068;-87
2021/07/24 02:21:42;;;;;;;12.38;7.10;;;14.40;99.90;;;;;;4916655;29;20504;-87
2021/07/24 02:24:09;;;;;;;11.13;7.22;;;14.40;99.90;;;;;;4916347;29;20067;-87
2021/07/24 02:26:40;;;;;;;10.48;6.70;;;14.40;99.90;;;;;;4915916;29;20031;-87
2021/07/24 02:29:05;;;;;;;9.73;6.18;;;14.40;99.90;;;;;;4931651;29;20496;-87
2021/07/24 02:31:31;;;;;;;11.50;6.10;;;14.40;99.90;;;;;;4931274;29;20098;-87
2021/07/24 02:34:01;;;;;;;10.65;7.10;;;14.30;99.90;;;;;;4916301;29;20144;-87
2021/07/24 02:36:29;;;;;;;11.13;7.40;;;14.20;99.90;;;;;;4915837;29;20087;-87
2021/07/24 02:38:59;;;;;;;11.23;7.05;;;14.20;99.90;;;;;;4931464;29;20392;-86
2021/07/24 02:41:25;;;;;;;;;;;14.20;99.90;;;;;;4921762;29;20036;-87
2021/07/24 02:43:52;;;;;;;10.00;5.78;;;14.20;99.90;;;;;;4898737;29;19919;-87
2021/07/24 02:46:21;;;;;;;10.52;6.50;;;14.20;99.90;;;;;;4891352;29;20032;-88
2021/07/24 02:48:50;;;;;;;9.00;6.28;;;14.20;99.90;;;;;;4912243;29;20047;-88
2021/07/24 02:51:26;;;;;;;9.38;5.50;;;14.20;99.90;;;;;;4898113;29;20043;-87
2021/07/24 02:53:53;;;;;;;12.57;7.00;;;14.20;99.90;;;;;;4912724;29;20052;-88
2021/07/24 02:56:19;;;;;;;10.45;5.97;;;14.10;99.90;;;;;;4914614;29;20039;-88
2021/07/24 02:58:45;;;;;;;11.02;6.63;;;14.20;99.90;;;;;;4953517;29;20051;-87
2021/07/24 03:01:11;;;;;;;9.98;5.85;;;14.10;99.90;;;;;;4922065;29;20036;-87
2021/07/24 03:03:37;;;;;;;10.27;6.75;;;14.10;99.90;;;;;;4918115;29;20029;-87
2021/07/24 03:06:03;;;;;;;12.88;6.53;;;14.10;99.90;;;;;;4915454;29;20543;-87
2021/07/24 03:08:29;;;;;;;13.98;7.60;;;14.00;99.90;;;;;;4915694;29;20492;-87
2021/07/24 03:10:55;;;;;;;10.77;6.50;;;14.00;99.90;;;;;;4915455;29;20045;-88
2021/07/24 03:13:20;;;;;;;10.23;6.55;;;14.00;99.90;;;;;;4915392;29;20102;-87
2021/07/24 03:15:46;;;;;;;15.00;7.70;;;14.00;99.90;;;;;;4929745;29;20058;-87
2021/07/24 03:18:12;;;;;;;9.90;6.28;;;14.00;99.90;;;;;;4921769;29;20142;-88
2021/07/24 03:20:37;;;;;;;10.93;6.47;;;14.00;99.90;;;;;;4922071;29;20096;-88
2021/07/24 03:23:03;;;;;;;10.63;6.15;;;14.00;99.90;;;;;;4922029;29;20028;-87
2021/07/24 03:25:29;;;;;;;9.95;6.72;;;14.00;99.90;;;;;;4921591;29;20035;-87
2021/07/24 03:27:55;;;;;;;12.07;7.22;;;13.90;99.90;;;;;;4921351;29;20032;-88
2021/07/24 03:30:21;;;;;;;11.40;6.68;;;13.90;99.90;;;;;;4937434;29;20032;-87
2021/07/24 03:32:46;;;;;;;11.35;7.50;;;13.90;99.90;;;;;;4937320;29;20027;-88
2021/07/24 03:35:12;;;;;;;11.43;7.05;;;13.90;99.90;;;;;;4937371;29;20039;-88
2021/07/24 03:37:38;;;;;;;14.07;7.50;;;14.00;99.90;;;;;;4937468;29;20060;-88
2021/07/24 03:40:04;;;;;;;14.48;6.70;;;13.90;99.90;;;;;;4937452;29;20067;-87
2021/07/24 03:42:30;;;;;;;13.35;7.47;;;14.00;99.90;;;;;;4921520;29;20039;-87
2021/07/24 03:44:56;;;;;;;10.18;6.82;;;13.90;99.90;;;;;;4937173;29;20032;-88
2021/07/24 03:47:21;;;;;;;9.20;6.03;;;13.90;99.90;;;;;;4937137;29;20034;-87
2021/07/24 03:49:47;;;;;;;10.10;6.50;;;14.00;99.90;;;;;;4921687;29;20079;-88
2021/07/24 03:52:13;;;;;;;13.38;7.38;;;14.00;99.90;;;;;;4937287;29;20043;-88
2021/07/24 03:54:39;;;;;;;14.50;6.30;;;13.90;99.90;;;;;;4953352;29;20074;-88
2021/07/24 03:57:05;;;;;;;9.98;6.30;;;13.90;99.90;;;;;;4931362;29;20036;-88
2021/07/24 03:59:30;;;;;;;12.45;7.55;;;13.90;99.90;;;;;;4934743;29;20028;-88
2021/07/24 04:01:58;;;;;;;12.13;7.40;;;13.90;99.90;;;;;;4917529;29;20052;-88
2021/07/24 04:04:23;;;;;;;10.65;6.32;;;13.90;99.90;;;;;;4901943;29;20095;-88
2021/07/24 04:06:51;;;;;;;10.95;5.97;;;13.90;99.90;;;;;;4915425;29;20052;-88
2021/07/24 04:09:16;;;;;;;12.60;7.53;;;14.00;99.90;;;;;;4898873;29;20127;-88
2021/07/24 04:11:43;;;;;;;12.82;6.90;;;14.00;99.90;;;;;;4914842;29;20042;-88
2021/07/24 04:14:09;;;;;;;10.43;6.35;;;14.00;99.90;;;;;;4898886;29;20083;-88
2021/07/24 04:16:35;;;;;;;11.70;6.80;;;14.00;99.90;;;;;;4914267;29;20131;-89
2021/07/24 04:19:01;;;;;;;9.73;5.80;;;14.00;99.90;;;;;;4914634;29;20056;-89
2021/07/24 04:21:28;;;;;;;10.93;6.70;;;14.00;99.90;;;;;;4899186;29;20532;-89
2021/07/24 04:23:58;;;;;;;14.80;6.70;;;14.10;99.90;;;;;;4898826;29;20123;-88
2021/07/24 04:26:24;;;;;;;11.23;7.40;;;14.10;99.90;;;;;;4898684;29;20028;-89
2021/07/24 04:28:50;;;;;;;11.32;6.57;;;14.10;99.90;;;;;;4898682;29;20046;-88
2021/07/24 04:31:16;;;;;;;10.10;6.22;;;14.10;99.90;;;;;;4914430;29;20055;-89
2021/07/24 04:33:42;;;;;;;14.60;7.63;;;14.20;99.90;;;;;;4914379;29;20044;-89
2021/07/24 04:36:10;;;;;;;12.50;7.22;;;14.30;99.90;;;;;;4898539;29;20058;-89
2021/07/24 04:38:36;;;;;;;9.85;5.30;;;14.30;99.90;;;;;;4898529;29;20130;-89
2021/07/24 04:41:02;;;;;;;11.43;5.65;;;14.30;99.90;;;;;;4914214;29;20205;-88
2021/07/24 04:43:27;;;;;;;12.40;7.28;;;14.30;99.90;;;;;;4914192;29;20035;-89
2021/07/24 04:45:53;;;;;;;10.57;6.57;;;14.30;99.90;;;;;;4914077;29;20132;-88
2021/07/24 04:48:19;;;;;;;12.05;5.72;;;14.40;99.90;;;;;;4913633;29;20099;-88
2021/07/24 04:50:50;;;;;;;9.98;5.75;;;14.50;99.90;;;;;;4913731;29;20040;-88
2021/07/24 04:53:17;;;;;;;11.70;6.40;;;14.50;99.90;;;;;;4913913;29;20481;-87
2021/07/24 04:55:43;;;;;;;9.75;5.35;;;14.50;99.90;;;;;;4898248;29;20519;-88
2021/07/24 04:58:09;;;;;;;12.45;7.10;;;14.60;99.90;;;;;;4894712;29;20100;-88
2021/07/24 05:00:41;;;;;;;9.43;6.53;;;14.60;99.90;;;;;;4895200;29;20036;-88
2021/07/24 05:03:06;;;;;;;10.90;6.18;;;14.70;99.90;;;;;;4879245;29;20089;-88
2021/07/24 05:05:35;;;;;;;11.07;6.40;;;14.90;99.90;;;;;;4879156;29;20037;-88
2021/07/24 05:08:01;;;;;;;12.55;7.18;;;14.90;99.90;;;;;;4894935;29;20029;-88
2021/07/24 05:10:27;;;;;;;9.23;6.45;;;15.00;99.90;;;;;;4879355;29;20048;-88
2021/07/24 05:12:52;;;;;;;9.32;5.47;;;15.10;99.90;;;;;;4894746;29;20044;-88
2021/07/24 05:15:18;;;;;;;10.20;6.18;;;15.10;99.90;;;;;;4901675;29;20060;-88
2021/07/24 05:17:44;;;;;;;11.93;6.45;;;15.10;99.90;;;;;;4931761;29;20043;-88
2021/07/24 05:20:10;;;;;;;11.23;5.65;;;15.10;99.90;;;;;;4932213;29;20032;-88
2021/07/24 05:22:36;;;;;;;10.05;6.20;;;15.20;99.90;;;;;;4916294;29;20032;-87
2021/07/24 05:25:01;;;;;;;11.77;7.18;;;15.20;99.90;;;;;;4948994;29;20046;-87
2021/07/24 05:27:27;;;;;;;10.18;5.40;;;15.20;99.90;;;;;;4916305;29;20035;-88
2021/07/24 05:29:53;;;;;;;12.55;6.25;;;15.30;99.90;;;;;;4932042;29;20507;-88
2021/07/24 05:32:18;;;;;;;10.52;6.00;;;15.30;99.90;;;;;;4916448;29;20042;-88
2021/07/24 05:34:44;;;;;;;10.73;6.05;;;15.40;99.90;;;;;;4916182;29;20042;-88
2021/07/24 05:37:09;;;;;;;9.18;5.80;;;15.40;99.90;;;;;;4932078;29;20027;-88
2021/07/24 05:39:35;;;;;;;10.13;5.85;;;15.50;99.90;;;;;;4917213;29;20024;-88
2021/07/24 05:42:01;;;;;;;10.95;6.40;;;15.60;99.90;;;;;;4917006;29;20110;-87
2021/07/24 05:44:26;;;;;;;8.90;5.60;;;15.60;99.90;;;;;;4916993;29;20039;-88
2021/07/24 05:46:52;;;;;;;9.88;5.82;;;15.80;99.90;;;;;;4917433;29;20031;-87
2021/07/24 05:49:17;;;;;;;8.75;4.75;;;15.80;99.90;;;;;;4931399;29;20054;-87
2021/07/24 05:51:43;;;;;;;9.07;5.53;;;15.90;99.90;;;;;;4931664;29;20043;-88
2021/07/24 05:54:15;;;;;;;9.77;5.72;;;16.10;99.90;;;;;;4915843;29;20388;-86
2021/07/24 05:56:40;;;;;;;8.85;5.63;;;16.30;99.90;;;;;;4931560;29;20098;-87
2021/07/24 05:59:06;;;;;;;8.70;5.78;;;16.20;99.90;;;;;;4931429;29;20036;-87
2021/07/24 06:01:32;;;;;;;10.25;5.80;;;16.30;99.90;;;;;;4931571;29;20032;-87
2021/07/24 06:03:57;;;;;;;10.95;6.57;;;16.40;99.90;;;;;;4915519;29;20032;-88
2021/07/24 06:06:23;;;;;;;9.43;5.20;;;16.50;99.90;;;;;;4931304;29;20036;-88
2021/07/24 06:08:48;;;;;;;10.00;6.30;;;16.60;99.90;;;;;;4931406;29;20127;-87
2021/07/24 06:11:14;;;;;;;10.73;5.90;;;16.60;99.90;;;;;;4931484;29;20044;-87
2021/07/24 06:13:40;;;;;;;8.98;5.50;;;16.80;99.90;;;;;;4931125;29;20036;-88
2021/07/24 06:16:09;;;;;;;6.90;4.45;;;16.90;99.90;;;;;;4931198;29;20075;-87
2021/07/24 06:18:37;;;;;;;9.57;5.60;;;17.00;99.90;;;;;;4931260;29;20031;-87
2021/07/24 06:21:03;;;;;;;6.32;4.03;;;17.10;99.90;;;;;;4931297;29;20398;-88
2021/07/24 06:23:28;;;;;;;7.10;4.65;;;17.20;99.90;;;;;;4915503;29;20063;-88
2021/07/24 06:25:54;;;;;;;8.43;5.93;;;17.30;99.90;;;;;;4915267;29;20172;-89
2021/07/24 06:28:21;;;;;;;9.52;7.13;;;17.30;99.90;;;;;;4931025;29;20166;-88
2021/07/24 06:30:47;;;;;;;8.73;5.88;;;17.10;99.90;;;;;;4930369;29;20099;-87
2021/07/24 06:33:12;;;;;;;8.52;5.40;;;17.40;99.90;;;;;;4915417;29;20047;-88
2021/07/24 06:35:38;;;;;;;8.55;5.47;;;17.50;99.90;;;;;;4915248;29;20047;-88
2021/07/24 06:38:04;;;;;;;9.63;5.40;;;17.60;99.90;;;;;;4930925;29;20194;-88
2021/07/24 06:40:29;;;;;;;8.00;5.10;;;17.60;99.90;;;;;;4947860;29;20062;-88
2021/07/24 06:42:55;;;;;;;9.05;5.13;;;17.80;99.90;;;;;;4915195;29;20181;-92
2021/07/24 06:45:22;;;;;;;10.93;5.85;;;17.90;99.90;;;;;;4890468;29;20057;-92
2021/07/24 06:47:48;;;;;;;9.32;5.55;;;17.70;99.90;;;;;;4892767;29;20109;-92
2021/07/24 06:50:13;;;;;;;7.68;4.88;;;17.80;99.90;;;;;;4893309;29;20049;-92
2021/07/24 06:52:39;;;;;;;8.63;5.63;;;17.90;99.90;;;;;;4893474;29;20056;-94
2021/07/24 06:55:05;;;;;;;6.63;4.13;;;18.00;99.90;;;;;;4908538;29;20060;-92
2021/07/24 06:57:31;;;;;;;9.00;4.68;;;18.00;99.90;;;;;;4902150;29;20036;-93
2021/07/24 06:59:57;;;;;;;7.97;5.03;;;18.00;99.90;;;;;;4896255;29;20063;-92
2021/07/24 07:02:25;;;;;;;9.27;5.68;;;18.10;99.90;;;;;;4911955;29;20024;-92
2021/07/24 07:04:51;;;;;;;7.00;4.78;;;18.10;99.90;;;;;;4912121;29;20477;-93
2021/07/24 07:07:20;;;;;;;7.97;5.20;;;18.10;99.90;;;;;;4912064;29;20028;-93
2021/07/24 07:09:46;;;;;;;5.78;3.90;;;18.10;99.90;;;;;;4896676;29;20056;-94
2021/07/24 07:12:11;;;;;;;8.25;5.43;;;18.20;99.90;;;;;;4885001;23;20064;-92
2021/07/24 07:14:37;;;;;;;8.82;5.20;;;18.00;99.90;;;;;;4856699;29;20030;-90
2021/07/24 07:17:04;;;;;;;5.90;4.20;;;18.10;99.90;;;;;;4849425;29;20482;-94
2021/07/24 07:19:35;;;;;;;8.60;4.55;;;18.30;99.90;;;;;;4838103;29;20034;-95
2021/07/24 07:22:02;;;;;;;5.85;3.75;;;18.50;99.90;;;;;;4853698;29;20034;-92
2021/07/24 07:24:28;;;;;;;8.35;4.43;;;18.60;99.90;;;;;;4841579;29;20033;-93
2021/07/24 07:27:01;;;;;;;6.22;4.28;;;18.50;99.90;;;;;;4841490;29;20062;-91
2021/07/24 07:29:29;;;;;;;6.75;4.38;;;18.70;99.90;;;;;;4848250;29;20034;-91
2021/07/24 07:31:55;;;;;;;5.47;4.22;;;18.80;99.90;;;;;;4868708;29;20041;-91
2021/07/24 07:34:22;;;;;;;5.65;4.03;;;19.00;99.90;;;;;;4856876;29;20033;-93
2021/07/24 07:36:48;;;;;;;6.40;4.53;;;19.00;99.90;;;;;;4856831;29;20038;-91
2021/07/24 07:39:31;;;;;;;7.47;4.93;;;18.90;99.90;;;;;;4869309;29;20131;-95
2021/07/24 07:41:57;;;;;;;6.75;4.57;;;18.90;99.90;;;;;;4873083;29;20496;-90
2021/07/24 07:44:24;;;;;;;7.18;5.30;;;18.90;99.90;;;;;;4862724;29;20490;-92
2021/07/24 07:46:52;;;;;;;10.90;5.88;;;18.90;99.90;;;;;;4868884;29;20121;-92
2021/07/24 07:49:23;;;;;;;7.38;4.78;;;19.00;99.90;;;;;;4859580;29;20046;-91
2021/07/24 07:51:48;;;;;;;5.55;4.22;;;19.40;99.90;;;;;;4875206;29;20125;-92
2021/07/24 07:54:14;;;;;;;8.43;5.25;;;19.50;99.90;;;;;;4860076;29;20041;-94
2021/07/24 07:56:40;;;;;;;7.00;5.28;;;19.40;99.90;;;;;;4859730;29;20128;-93
2021/07/24 07:59:09;;;;;;;7.97;5.53;;;19.20;99.90;;;;;;4866903;29;20037;-93
2021/07/24 08:01:35;;;;;;;6.90;4.68;;;19.30;99.90;;;;;;4874902;29;20045;-92
2021/07/24 08:04:01;;;;;;;7.57;5.43;;;19.40;99.90;;;;;;4844487;29;20037;-91
2021/07/24 08:06:27;;;;;;;9.23;6.43;;;19.50;99.90;;;;;;4874894;29;20048;-89
2021/07/24 08:08:53;;;;;;;6.30;4.40;;;19.70;99.90;;;;;;4859448;29;20029;-92
2021/07/24 08:11:19;;;;;;;5.93;4.18;;;19.90;99.90;;;;;;4874831;29;20052;-92
2021/07/24 08:13:44;;;;;;;5.63;4.18;;;20.10;99.90;;;;;;4896584;29;20032;-90
2021/07/24 08:16:17;;;;;;;9.45;6.45;;;20.20;99.90;;;;;;4896154;29;20134;-93
2021/07/24 08:18:50;;;;;;;7.07;4.53;;;20.20;99.90;;;;;;4896523;29;20032;-89
2021/07/24 08:21:16;;;;;;;7.65;5.22;;;20.50;99.90;;;;;;4927746;29;20041;-91
2021/07/24 08:23:41;;;;;;;6.57;4.97;;;20.50;99.90;;;;;;4912142;29;20035;-92
2021/07/24 08:26:07;;;;;;;9.57;6.45;;;20.90;99.90;;;;;;4927708;29;20084;-92
2021/07/24 08:28:35;;;;;;;8.07;5.75;;;20.70;99.90;;;;;;4927877;29;20037;-91
2021/07/24 08:31:01;;;;;;;9.48;6.03;;;20.60;99.90;;;;;;4927980;29;20069;-91
2021/07/24 08:33:27;;;;;;;10.10;6.30;;;20.60;99.90;;;;;;4911819;29;20061;-93
2021/07/24 08:35:55;;;;;;;5.97;4.70;;;21.00;99.90;;;;;;4927559;29;20028;-89
2021/07/24 08:38:20;;;;;;;4.70;3.88;;;20.90;99.90;;;;;;4911715;29;20035;-90
2021/07/24 08:40:47;;;;;;;4.63;3.95;;;21.50;99.90;;;;;;4927534;29;20040;-90
2021/07/24 08:43:14;;;;;;;5.90;3.60;;;21.80;99.90;;;;;;4927593;29;20033;-90
2021/07/24 08:45:39;;;;;;;6.35;5.18;;;21.90;99.90;;;;;;4927502;29;20129;-90
2021/07/24 08:48:16;;;;;;;5.30;3.70;;;21.80;99.90;;;;;;4927167;29;20040;-90
2021/07/24 08:50:44;;;;;;;4.50;3.42;;;22.30;99.90;;;;;;4895976;29;20043;-92
2021/07/24 08:53:12;;;;;;;6.35;3.97;;;22.50;99.90;;;;;;4895527;29;20123;-91
2021/07/24 08:55:41;;;;;;;7.18;4.47;;;22.40;99.90;;;;;;4927200;29;20037;-89
2021/07/24 08:58:13;;;;;;;7.82;5.07;;;22.40;99.90;;;;;;4911948;29;20080;-89
2021/07/24 09:00:41;;;;;;;6.35;3.95;;;22.40;99.90;;;;;;4905408;29;20037;-89
2021/07/24 09:03:16;;;;;;;6.05;4.57;;;22.90;99.90;;;;;;4872527;29;20033;-90
2021/07/24 09:05:43;;;;;;;5.53;4.07;;;22.60;99.90;;;;;;4892631;29;20029;-90
2021/07/24 09:08:12;;;;;;;7.20;5.22;;;22.70;99.90;;;;;;4875609;29;20033;-91
2021/07/24 09:10:37;;;;;;;5.53;4.45;;;22.50;99.90;;;;;;4875651;29;20120;-90
2021/07/24 09:13:03;;;;;;;6.60;3.90;;;22.70;99.90;;;;;;4879257;29;20043;-91
2021/07/24 09:15:29;;;;;;;4.70;4.20;;;22.90;99.90;;;;;;4879896;29;20032;-87
2021/07/24 09:17:55;;;;;;;7.05;4.78;;;22.70;99.90;;;;;;4910492;29;20053;-90
2021/07/24 09:20:26;;;;;;;4.65;4.18;;;22.70;99.90;;;;;;4880176;29;20096;-90
2021/07/24 09:22:53;;;;;;;8.38;4.30;;;23.00;99.90;;;;;;4895515;29;20033;-91
2021/07/24 09:25:23;;;;;;;6.82;5.30;;;22.80;99.90;;;;;;4895422;29;20037;-90
2021/07/24 09:27:55;;;;;;;5.47;4.50;;;22.60;99.90;;;;;;4879840;29;20032;-92
2021/07/24 09:30:24;;;;;;;6.10;4.05;;;22.40;99.90;;;;;;4895250;29;20063;-92
2021/07/24 09:33:05;;;;;;;5.43;4.18;;;22.70;99.90;;;;;;4910716;29;20036;-89
2021/07/24 09:35:34;;;;;;;5.78;4.32;;;22.90;99.90;;;;;;4879116;29;20105;-93
2021/07/24 09:38:13;;;;;;;4.93;4.28;;;22.80;99.90;;;;;;4891773;29;20055;-93
2021/07/24 09:40:41;;;;;;;6.23;4.53;;;22.90;99.90;;;;;;4876175;29;20033;-91
2021/07/24 09:43:28;;;;;;;6.03;4.30;;;22.80;99.90;;;;;;4877689;29;20088;-91
2021/07/24 09:46:28;;;;;;;6.97;4.68;;;22.60;99.90;;;;;;4895004;29;20052;-91
2021/07/24 09:49:20;;;;;;;5.15;3.78;;;22.60;99.90;;;;;;4840965;29;20042;-91
2021/07/24 09:51:46;;;;;;;6.35;4.65;;;22.90;99.90;;;;;;4837279;29;20571;-91
2021/07/24 09:54:27;;;;;;;5.35;4.47;;;22.90;99.90;;;;;;4854178;29;20074;-91
2021/07/24 09:56:54;;;;;;;6.60;4.13;;;22.80;99.90;;;;;;4849852;29;20132;-93
2021/07/24 09:59:31;;;;;;;7.32;4.75;;;22.50;99.90;;;;;;4822718;29;20038;-89
2021/07/24 10:02:01;;;;;;;7.05;5.43;;;22.60;99.90;;;;;;4867538;29;20038;-91
2021/07/24 10:04:35;;;;;;;5.30;4.15;;;22.60;99.90;;;;;;4822671;29;20038;-91
2021/07/24 10:07:04;;;;;;;5.57;3.83;;;22.70;99.90;;;;;;4838667;29;20052;-90
2021/07/24 10:09:37;;;;;;;5.78;4.28;;;22.80;99.90;;;;;;4838154;29;20049;-86
2021/07/24 10:12:06;;;;;;;6.72;4.63;;;22.80;99.90;;;;;;4853167;29;20065;-89
2021/07/24 10:14:33;;;;;;;7.43;5.68;;;22.70;99.90;;;;;;4853211;29;20507;-90
2021/07/24 10:16:59;;;;;;;6.20;5.20;;;22.80;99.90;;;;;;4836468;29;20042;-90
2021/07/24 10:19:26;;;;;;;7.85;4.55;;;22.80;99.90;;;;;;4852137;29;20046;-90
2021/07/24 10:21:53;;;;;;;6.57;5.40;;;22.80;99.90;;;;;;4867724;29;20042;-90
2021/07/24 10:24:20;;;;;;;5.03;3.70;;;22.90;99.90;;;;;;4867526;29;20037;-90
2021/07/24 10:26:56;;;;;;;6.25;4.65;;;22.90;99.90;;;;;;4874912;29;20049;-91
2021/07/24 10:30:06;;;;;;;6.15;4.40;;;22.80;99.90;;;;;;4875222;29;20127;-90
2021/07/24 10:32:36;;;;;;;5.22;4.07;;;23.00;99.90;;;;;;4872815;29;20063;-90
2021/07/24 10:35:02;;;;;;;5.65;4.68;;;23.10;99.90;;;;;;4859189;29;20057;-91
2021/07/24 10:37:42;;;;;;;5.10;3.88;;;23.10;99.90;;;;;;4859516;29;20101;-90
2021/07/24 10:40:20;;;;;;;6.38;4.90;;;23.10;99.90;;;;;;4859774;29;20069;-91
2021/07/24 10:42:53;;;;;;;6.65;4.13;;;23.10;99.90;;;;;;4890171;29;20101;-91
2021/07/24 10:45:31;;;;;;;4.30;3.72;;;23.20;99.90;;;;;;4874494;29;20032;-90
2021/07/24 10:48:26;;;;;;;6.90;4.35;;;23.30;99.90;;;;;;4895462;29;20025;-91
2021/07/24 10:50:55;;;;;;;7.20;5.70;;;23.20;99.90;;;;;;4877396;29;20041;-91
2021/07/24 10:53:22;;;;;;;8.10;4.57;;;23.10;99.90;;;;;;4878401;29;20037;-91
2021/07/24 10:55:50;;;;;;;7.25;5.35;;;23.20;99.90;;;;;;4874619;29;20029;-91
2021/07/24 10:58:17;;;;;;;5.65;4.88;;;23.30;99.90;;;;;;4875365;29;20048;-91
2021/07/24 11:03:46;;;;;;;6.78;5.47;;;23.10;99.90;;;;;;4880500;29;20044;-88
2021/07/24 11:06:30;;;;;;;6.90;5.38;;;23.20;99.90;;;;;;4908473;29;20084;-88
2021/07/24 11:09:28;;;;;;;6.45;5.72;;;23.10;99.90;;;;;;4908364;29;20497;-89
2021/07/24 11:12:13;;;;;;;6.35;5.40;;;23.10;99.90;;;;;;4877446;29;20121;-89
2021/07/24 11:14:42;;;;;;;9.27;5.80;;;23.00;99.90;;;;;;4908231;29;20089;-89
2021/07/24 11:17:08;;;;;;;6.45;4.78;;;22.90;99.90;;;;;;4879933;29;20040;-89
2021/07/24 11:19:49;;;;;;;8.80;6.22;;;22.80;99.90;;;;;;4881556;29;20035;-88
2021/07/24 11:22:28;;;;;;;7.63;5.88;;;22.80;99.90;;;;;;4881665;29;20037;-87
2021/07/24 11:24:54;;;;;;;8.68;5.47;;;22.80;99.90;;;;;;4912855;29;20083;-90
2021/07/24 11:27:26;;;;;;;9.25;6.55;;;22.70;99.90;;;;;;4881983;29;20510;-87
2021/07/24 11:30:25;;;;;;;11.45;6.45;;;22.60;99.90;;;;;;4881666;29;20055;-87
2021/07/24 11:32:55;;;;;;;8.20;5.93;;;22.60;99.90;;;;;;4881528;29;20040;-88
2021/07/24 11:35:25;;;;;;;;;;;22.60;99.90;;;;;;4913422;29;20067;-89
2021/07/24 11:37:51;;;;;;;5.38;4.22;;;22.70;99.90;;;;;;4881581;29;19918;-88
2021/07/24 11:40:22;;;;;;;7.93;5.25;;;22.80;99.90;;;;;;4912735;29;20043;-88
2021/07/24 11:43:02;;;;;;;7.10;5.25;;;22.70;99.90;;;;;;4912755;29;20028;-90
2021/07/24 11:45:29;;;;;;;8.18;4.97;;;22.80;99.90;;;;;;4881848;29;20045;-92
2021/07/24 11:48:15;;;;;;;7.07;6.18;;;22.80;99.90;;;;;;4912627;29;20036;-88
2021/07/24 11:50:42;;;;;;;7.00;6.30;;;22.80;99.90;;;;;;4896773;29;20044;-88
2021/07/24 11:53:09;;;;;;;6.88;6.15;;;22.80;99.90;;;;;;4896912;29;20027;-88
2021/07/24 11:55:36;;;;;;;7.13;5.85;;;22.90;99.90;;;;;;4896744;29;20510;-88
2021/07/24 11:58:15;;;;;;;7.95;5.82;;;22.90;99.90;;;;;;4912340;29;20064;-87
2021/07/24 12:00:46;;;;;;;6.90;5.88;;;23.00;99.90;;;;;;4912406;29;20029;-88
2021/07/24 12:03:21;;;;;;;7.50;5.60;;;23.10;99.90;;;;;;4912221;29;20037;-88
2021/07/24 12:05:48;;;;;;;7.88;5.80;;;23.20;99.90;;;;;;4895920;29;20033;-87
2021/07/24 12:08:21;;;;;;;7.28;5.50;;;23.30;99.90;;;;;;4893107;29;20050;-85
2021/07/24 12:10:47;;;;;;;6.97;5.35;;;23.40;99.90;;;;;;4877379;29;20494;-86
2021/07/24 12:13:17;;;;;;;8.35;5.50;;;23.40;99.90;;;;;;4862277;29;20033;-87
2021/07/24 12:16:08;;;;;;;7.22;5.07;;;23.40;99.90;;;;;;4896137;29;20056;-85
2021/07/24 12:18:47;;;;;;;6.60;5.45;;;23.40;99.90;;;;;;4886991;29;20029;-88
2021/07/24 12:21:21;;;;;;;6.75;5.18;;;23.30;99.90;;;;;;4881131;29;20069;-87
2021/07/24 12:24:01;;;;;;;8.43;5.55;;;23.30;99.90;;;;;;4876355;29;20037;-86
2021/07/24 12:26:31;;;;;;;6.30;5.30;;;23.30;99.90;;;;;;4877121;29;20048;-87
2021/07/24 12:28:58;;;;;;;7.72;5.63;;;23.30;99.90;;;;;;4875735;29;20097;-87
2021/07/24 12:31:29;;;;;;;9.23;6.47;;;23.40;99.90;;;;;;4890028;29;20041;-86
2021/07/24 12:34:02;;;;;;;7.10;5.78;;;23.40;99.90;;;;;;4895996;29;20032;-86
2021/07/24 12:36:29;;;;;;;11.07;6.25;;;23.40;99.90;;;;;;4895979;29;20033;-87
2021/07/24 12:38:58;;;;;;;7.82;6.43;;;23.40;99.90;;;;;;4895875;29;20028;-87
2021/07/24 12:41:31;;;;;;;8.00;5.45;;;23.50;99.90;;;;;;4895875;29;20040;-87
2021/07/24 12:44:07;;;;;;;7.68;6.88;;;23.50;99.90;;;;;;4895865;29;20446;-88
2021/07/24 12:46:38;;;;;;;6.97;5.80;;;23.50;99.90;;;;;;4895952;29;20092;-89
2021/07/24 12:49:06;;;;;;;9.25;6.38;;;23.40;99.90;;;;;;4895829;29;20028;-87
2021/07/24 12:51:40;;;;;;;6.95;5.88;;;23.60;99.90;;;;;;4895935;29;20063;-90
2021/07/24 12:54:16;;;;;;;7.00;5.93;;;23.60;99.90;;;;;;4895898;29;20037;-89
2021/07/24 12:56:45;;;;;;;7.65;6.60;;;23.50;99.90;;;;;;4895800;29;20501;-89
2021/07/24 12:59:13;;;;;;;7.00;6.28;;;23.60;99.90;;;;;;4895653;29;20039;-90